sensor_id;sensor_type;location;lat;lon;timestamp;P1;durP1;ratioP1;P2;durP2;ratioP2
18433;SDS011;9344;52.294;13.626;2022-08-06T00:01:58;2.90;;;0.68;;
18433;SDS011;9344;52.294;13.626;2022-08-06T00:04:25;2.72;;;0.80;;
18433;SDS011;9344;52.294;13.626;2022-08-06T00:06:51;1.10;;;0.50;;
18433;SDS011;9344;52.294;13.626;2022-08-06T00:09:19;0.88;;;0.70;;
18433;SDS011;9344;52.294;13.626;2022-08-06T00:11:46;0.70;;;0.60;;
18433;SDS011;9344;52.294;13.626;2022-08-06T00:14:12;1.05;;;0.88;;
18433;SDS011;9344;52.294;13.626;2022-08-06T00:16:39;0.50;;;0.50;;
18433;SDS011;9344;52.294;13.626;2022-08-06T00:19:06;1.45;;;0.80;;
18433;SDS011;9344;52.294;13.626;2022-08-06T00:21:32;0.77;;;0.55;;
18433;SDS011;9344;52.294;13.626;2022-08-06T00:24:00;0.60;;;0.60;;
18433;SDS011;9344;52.294;13.626;2022-08-06T00:26:26;1.48;;;0.70;;
18433;SDS011;9344;52.294;13.626;2022-08-06T00:28:53;0.85;;;0.70;;
18433;SDS011;9344;52.294;13.626;2022-08-06T00:31:20;0.75;;;0.63;;
18433;SDS011;9344;52.294;13.626;2022-08-06T00:33:47;0.50;;;0.50;;
18433;SDS011;9344;52.294;13.626;2022-08-06T00:36:13;0.82;;;0.70;;
18433;SDS011;9344;52.294;13.626;2022-08-06T00:38:40;1.17;;;0.60;;
18433;SDS011;9344;52.294;13.626;2022-08-06T00:41:07;0.90;;;0.60;;
18433;SDS011;9344;52.294;13.626;2022-08-06T00:43:34;2.28;;;0.80;;
18433;SDS011;9344;52.294;13.626;2022-08-06T00:46:01;0.85;;;0.70;;
18433;SDS011;9344;52.294;13.626;2022-08-06T00:48:27;0.60;;;0.60;;
18433;SDS011;9344;52.294;13.626;2022-08-06T00:50:54;0.70;;;0.60;;
18433;SDS011;9344;52.294;13.626;2022-08-06T00:53:20;0.52;;;0.52;;
18433;SDS011;9344;52.294;13.626;2022-08-06T00:55:47;0.88;;;0.50;;
18433;SDS011;9344;52.294;13.626;2022-08-06T00:58:14;0.80;;;0.60;;
18433;SDS011;9344;52.294;13.626;2022-08-06T01:00:41;3.33;;;0.63;;
18433;SDS011;9344;52.294;13.626;2022-08-06T01:03:08;0.93;;;0.75;;
18433;SDS011;9344;52.294;13.626;2022-08-06T01:05:35;0.73;;;0.50;;
18433;SDS011;9344;52.294;13.626;2022-08-06T01:08:01;0.80;;;0.60;;
18433;SDS011;9344;52.294;13.626;2022-08-06T01:10:28;0.85;;;0.50;;
18433;SDS011;9344;52.294;13.626;2022-08-06T01:12:55;0.93;;;0.50;;
18433;SDS011;9344;52.294;13.626;2022-08-06T01:15:23;1.40;;;0.50;;
18433;SDS011;9344;52.294;13.626;2022-08-06T01:17:52;1.33;;;0.70;;
18433;SDS011;9344;52.294;13.626;2022-08-06T01:20:23;0.73;;;0.68;;
18433;SDS011;9344;52.294;13.626;2022-08-06T01:23:16;0.50;;;0.50;;
18433;SDS011;9344;52.294;13.626;2022-08-06T01:26:02;0.50;;;0.50;;
18433;SDS011;9344;52.294;13.626;2022-08-06T01:28:54;0.50;;;0.50;;
18433;SDS011;9344;52.294;13.626;2022-08-06T01:31:26;0.93;;;0.63;;
18433;SDS011;9344;52.294;13.626;2022-08-06T01:33:59;0.88;;;0.50;;
18433;SDS011;9344;52.294;13.626;2022-08-06T01:36:29;0.88;;;0.60;;
18433;SDS011;9344;52.294;13.626;2022-08-06T01:39:02;0.77;;;0.50;;
18433;SDS011;9344;52.294;13.626;2022-08-06T01:41:43;0.68;;;0.63;;
18433;SDS011;9344;52.294;13.626;2022-08-06T01:44:16;2.35;;;0.40;;
18433;SDS011;9344;52.294;13.626;2022-08-06T01:46:46;0.50;;;0.50;;
18433;SDS011;9344;52.294;13.626;2022-08-06T01:49:15;1.33;;;0.52;;
18433;SDS011;9344;52.294;13.626;2022-08-06T01:51:46;0.80;;;0.50;;
18433;SDS011;9344;52.294;13.626;2022-08-06T01:54:16;0.47;;;0.32;;
18433;SDS011;9344;52.294;13.626;2022-08-06T01:56:44;3.60;;;0.70;;
18433;SDS011;9344;52.294;13.626;2022-08-06T01:59:17;0.45;;;0.45;;
18433;SDS011;9344;52.294;13.626;2022-08-06T02:01:47;0.40;;;0.40;;
18433;SDS011;9344;52.294;13.626;2022-08-06T02:04:18;0.50;;;0.50;;
18433;SDS011;9344;52.294;13.626;2022-08-06T02:06:46;0.50;;;0.47;;
18433;SDS011;9344;52.294;13.626;2022-08-06T02:09:15;0.45;;;0.45;;
18433;SDS011;9344;52.294;13.626;2022-08-06T02:11:44;1.40;;;0.50;;
18433;SDS011;9344;52.294;13.626;2022-08-06T02:14:16;0.50;;;0.50;;
18433;SDS011;9344;52.294;13.626;2022-08-06T02:16:46;0.73;;;0.60;;
18433;SDS011;9344;52.294;13.626;2022-08-06T02:19:15;0.40;;;0.40;;
18433;SDS011;9344;52.294;13.626;2022-08-06T02:21:43;0.52;;;0.40;;
18433;SDS011;9344;52.294;13.626;2022-08-06T02:24:12;0.40;;;0.40;;
18433;SDS011;9344;52.294;13.626;2022-08-06T02:26:39;0.40;;;0.40;;
18433;SDS011;9344;52.294;13.626;2022-08-06T02:29:07;0.52;;;0.40;;
18433;SDS011;9344;52.294;13.626;2022-08-06T02:31:41;0.60;;;0.60;;
18433;SDS011;9344;52.294;13.626;2022-08-06T02:34:08;0.40;;;0.40;;
18433;SDS011;9344;52.294;13.626;2022-08-06T02:36:36;0.60;;;0.60;;
18433;SDS011;9344;52.294;13.626;2022-08-06T02:39:08;0.63;;;0.40;;
18433;SDS011;9344;52.294;13.626;2022-08-06T02:41:40;0.52;;;0.40;;
18433;SDS011;9344;52.294;13.626;2022-08-06T02:44:09;0.47;;;0.47;;
18433;SDS011;9344;52.294;13.626;2022-08-06T02:46:43;0.40;;;0.40;;
18433;SDS011;9344;52.294;13.626;2022-08-06T02:49:15;0.43;;;0.43;;
18433;SDS011;9344;52.294;13.626;2022-08-06T02:51:46;1.00;;;0.63;;
18433;SDS011;9344;52.294;13.626;2022-08-06T02:54:19;0.50;;;0.50;;
18433;SDS011;9344;52.294;13.626;2022-08-06T02:56:49;0.50;;;0.50;;
18433;SDS011;9344;52.294;13.626;2022-08-06T02:59:23;1.90;;;0.50;;
18433;SDS011;9344;52.294;13.626;2022-08-06T03:01:56;0.50;;;0.40;;
18433;SDS011;9344;52.294;13.626;2022-08-06T03:04:27;0.95;;;0.50;;
18433;SDS011;9344;52.294;13.626;2022-08-06T03:06:55;0.50;;;0.50;;
18433;SDS011;9344;52.294;13.626;2022-08-06T03:09:24;0.70;;;0.50;;
18433;SDS011;9344;52.294;13.626;2022-08-06T03:11:51;1.15;;;0.65;;
18433;SDS011;9344;52.294;13.626;2022-08-06T03:14:19;3.13;;;0.50;;
18433;SDS011;9344;52.294;13.626;2022-08-06T03:16:46;2.85;;;0.60;;
18433;SDS011;9344;52.294;13.626;2022-08-06T03:19:15;0.60;;;0.60;;
18433;SDS011;9344;52.294;13.626;2022-08-06T03:21:45;2.10;;;0.60;;
18433;SDS011;9344;52.294;13.626;2022-08-06T03:24:13;0.68;;;0.50;;
18433;SDS011;9344;52.294;13.626;2022-08-06T03:26:40;0.50;;;0.50;;
18433;SDS011;9344;52.294;13.626;2022-08-06T03:29:08;1.02;;;0.50;;
18433;SDS011;9344;52.294;13.626;2022-08-06T03:31:36;0.50;;;0.50;;
18433;SDS011;9344;52.294;13.626;2022-08-06T03:34:03;0.90;;;0.60;;
18433;SDS011;9344;52.294;13.626;2022-08-06T03:36:32;3.42;;;0.50;;
18433;SDS011;9344;52.294;13.626;2022-08-06T03:39:01;0.55;;;0.50;;
18433;SDS011;9344;52.294;13.626;2022-08-06T03:41:32;0.40;;;0.40;;
18433;SDS011;9344;52.294;13.626;2022-08-06T03:44:01;0.70;;;0.50;;
18433;SDS011;9344;52.294;13.626;2022-08-06T03:46:30;1.10;;;0.60;;
18433;SDS011;9344;52.294;13.626;2022-08-06T03:49:04;1.13;;;0.80;;
18433;SDS011;9344;52.294;13.626;2022-08-06T03:51:35;1.35;;;0.60;;
18433;SDS011;9344;52.294;13.626;2022-08-06T03:54:03;0.63;;;0.63;;
18433;SDS011;9344;52.294;13.626;2022-08-06T03:56:32;0.68;;;0.60;;
18433;SDS011;9344;52.294;13.626;2022-08-06T03:59:02;0.70;;;0.60;;
18433;SDS011;9344;52.294;13.626;2022-08-06T04:01:31;1.35;;;0.60;;
18433;SDS011;9344;52.294;13.626;2022-08-06T04:04:01;1.50;;;0.60;;
18433;SDS011;9344;52.294;13.626;2022-08-06T04:06:28;0.93;;;0.70;;
18433;SDS011;9344;52.294;13.626;2022-08-06T04:08:57;0.80;;;0.57;;
18433;SDS011;9344;52.294;13.626;2022-08-06T04:11:26;1.25;;;0.80;;
18433;SDS011;9344;52.294;13.626;2022-08-06T04:13:53;1.00;;;0.77;;
18433;SDS011;9344;52.294;13.626;2022-08-06T04:16:20;1.02;;;0.85;;
18433;SDS011;9344;52.294;13.626;2022-08-06T04:18:47;3.08;;;0.70;;
18433;SDS011;9344;52.294;13.626;2022-08-06T04:21:15;1.25;;;0.80;;
18433;SDS011;9344;52.294;13.626;2022-08-06T04:23:45;1.65;;;0.75;;
18433;SDS011;9344;52.294;13.626;2022-08-06T04:26:14;3.80;;;0.82;;
18433;SDS011;9344;52.294;13.626;2022-08-06T04:28:45;1.08;;;0.60;;
18433;SDS011;9344;52.294;13.626;2022-08-06T04:31:13;4.25;;;0.80;;
18433;SDS011;9344;52.294;13.626;2022-08-06T04:33:41;2.45;;;0.80;;
18433;SDS011;9344;52.294;13.626;2022-08-06T04:36:09;1.08;;;0.68;;
18433;SDS011;9344;52.294;13.626;2022-08-06T04:38:36;1.15;;;0.77;;
18433;SDS011;9344;52.294;13.626;2022-08-06T04:41:04;1.67;;;0.52;;
18433;SDS011;9344;52.294;13.626;2022-08-06T04:43:33;1.88;;;0.88;;
18433;SDS011;9344;52.294;13.626;2022-08-06T04:46:00;1.05;;;0.70;;
18433;SDS011;9344;52.294;13.626;2022-08-06T04:48:28;1.40;;;0.77;;
18433;SDS011;9344;52.294;13.626;2022-08-06T04:50:55;0.88;;;0.73;;
18433;SDS011;9344;52.294;13.626;2022-08-06T04:53:22;0.90;;;0.77;;
18433;SDS011;9344;52.294;13.626;2022-08-06T04:55:48;1.05;;;0.80;;
18433;SDS011;9344;52.294;13.626;2022-08-06T04:58:15;2.05;;;1.10;;
18433;SDS011;9344;52.294;13.626;2022-08-06T05:00:44;1.58;;;0.60;;
18433;SDS011;9344;52.294;13.626;2022-08-06T05:03:13;1.05;;;0.85;;
18433;SDS011;9344;52.294;13.626;2022-08-06T05:05:42;0.82;;;0.60;;
18433;SDS011;9344;52.294;13.626;2022-08-06T05:08:12;0.60;;;0.60;;
18433;SDS011;9344;52.294;13.626;2022-08-06T05:10:41;1.02;;;0.85;;
18433;SDS011;9344;52.294;13.626;2022-08-06T05:13:12;1.42;;;0.60;;
18433;SDS011;9344;52.294;13.626;2022-08-06T05:15:40;0.68;;;0.65;;
18433;SDS011;9344;52.294;13.626;2022-08-06T05:18:12;0.50;;;0.50;;
18433;SDS011;9344;52.294;13.626;2022-08-06T05:20:44;0.60;;;0.60;;
18433;SDS011;9344;52.294;13.626;2022-08-06T05:23:16;2.28;;;0.60;;
18433;SDS011;9344;52.294;13.626;2022-08-06T05:25:46;1.10;;;0.40;;
18433;SDS011;9344;52.294;13.626;2022-08-06T05:28:13;0.73;;;0.55;;
18433;SDS011;9344;52.294;13.626;2022-08-06T05:30:44;0.80;;;0.52;;
18433;SDS011;9344;52.294;13.626;2022-08-06T05:33:12;0.57;;;0.57;;
18433;SDS011;9344;52.294;13.626;2022-08-06T05:35:48;0.50;;;0.50;;
18433;SDS011;9344;52.294;13.626;2022-08-06T05:38:15;0.88;;;0.52;;
18433;SDS011;9344;52.294;13.626;2022-08-06T05:40:41;0.85;;;0.70;;
18433;SDS011;9344;52.294;13.626;2022-08-06T05:43:07;4.72;;;0.88;;
18433;SDS011;9344;52.294;13.626;2022-08-06T05:45:34;3.47;;;0.70;;
18433;SDS011;9344;52.294;13.626;2022-08-06T05:48:04;1.13;;;0.40;;
18433;SDS011;9344;52.294;13.626;2022-08-06T05:50:31;0.52;;;0.52;;
18433;SDS011;9344;52.294;13.626;2022-08-06T05:53:02;1.05;;;0.68;;
18433;SDS011;9344;52.294;13.626;2022-08-06T05:55:34;0.65;;;0.60;;
18433;SDS011;9344;52.294;13.626;2022-08-06T05:58:06;0.60;;;0.60;;
18433;SDS011;9344;52.294;13.626;2022-08-06T06:00:36;1.58;;;0.60;;
18433;SDS011;9344;52.294;13.626;2022-08-06T06:03:06;1.13;;;0.50;;
18433;SDS011;9344;52.294;13.626;2022-08-06T06:05:37;1.25;;;0.70;;
18433;SDS011;9344;52.294;13.626;2022-08-06T06:08:04;0.50;;;0.50;;
18433;SDS011;9344;52.294;13.626;2022-08-06T06:10:33;0.60;;;0.60;;
18433;SDS011;9344;52.294;13.626;2022-08-06T06:13:01;1.95;;;0.60;;
18433;SDS011;9344;52.294;13.626;2022-08-06T06:15:29;0.82;;;0.50;;
18433;SDS011;9344;52.294;13.626;2022-08-06T06:18:00;0.75;;;0.63;;
18433;SDS011;9344;52.294;13.626;2022-08-06T06:20:37;0.63;;;0.60;;
18433;SDS011;9344;52.294;13.626;2022-08-06T06:23:14;1.08;;;0.70;;
18433;SDS011;9344;52.294;13.626;2022-08-06T06:25:45;0.65;;;0.65;;
18433;SDS011;9344;52.294;13.626;2022-08-06T06:28:21;0.80;;;0.70;;
18433;SDS011;9344;52.294;13.626;2022-08-06T06:30:55;1.38;;;0.68;;
18433;SDS011;9344;52.294;13.626;2022-08-06T06:33:27;1.77;;;0.70;;
18433;SDS011;9344;52.294;13.626;2022-08-06T06:36:07;0.70;;;0.65;;
18433;SDS011;9344;52.294;13.626;2022-08-06T06:38:47;0.50;;;0.50;;
18433;SDS011;9344;52.294;13.626;2022-08-06T06:41:23;0.50;;;0.50;;
18433;SDS011;9344;52.294;13.626;2022-08-06T06:43:56;1.40;;;0.80;;
18433;SDS011;9344;52.294;13.626;2022-08-06T06:46:31;0.90;;;0.60;;
18433;SDS011;9344;52.294;13.626;2022-08-06T06:49:03;2.03;;;0.70;;
18433;SDS011;9344;52.294;13.626;2022-08-06T06:51:39;0.75;;;0.60;;
18433;SDS011;9344;52.294;13.626;2022-08-06T06:54:09;0.98;;;0.60;;
18433;SDS011;9344;52.294;13.626;2022-08-06T06:56:54;0.90;;;0.70;;
18433;SDS011;9344;52.294;13.626;2022-08-06T06:59:23;1.25;;;0.70;;
18433;SDS011;9344;52.294;13.626;2022-08-06T07:01:54;0.80;;;0.70;;
18433;SDS011;9344;52.294;13.626;2022-08-06T07:04:23;1.67;;;0.85;;
18433;SDS011;9344;52.294;13.626;2022-08-06T07:06:53;0.52;;;0.50;;
18433;SDS011;9344;52.294;13.626;2022-08-06T07:09:22;0.50;;;0.50;;
18433;SDS011;9344;52.294;13.626;2022-08-06T07:11:51;0.77;;;0.70;;
18433;SDS011;9344;52.294;13.626;2022-08-06T07:14:21;0.50;;;0.50;;
18433;SDS011;9344;52.294;13.626;2022-08-06T07:16:50;0.82;;;0.60;;
18433;SDS011;9344;52.294;13.626;2022-08-06T07:19:20;1.92;;;0.68;;
18433;SDS011;9344;52.294;13.626;2022-08-06T07:21:48;0.60;;;0.60;;
18433;SDS011;9344;52.294;13.626;2022-08-06T07:24:17;0.57;;;0.52;;
18433;SDS011;9344;52.294;13.626;2022-08-06T07:26:45;2.35;;;0.70;;
18433;SDS011;9344;52.294;13.626;2022-08-06T07:29:12;0.75;;;0.63;;
18433;SDS011;9344;52.294;13.626;2022-08-06T07:31:40;1.27;;;0.60;;
18433;SDS011;9344;52.294;13.626;2022-08-06T07:34:08;0.52;;;0.52;;
18433;SDS011;9344;52.294;13.626;2022-08-06T07:36:36;2.88;;;0.60;;
18433;SDS011;9344;52.294;13.626;2022-08-06T07:39:05;0.43;;;0.43;;
18433;SDS011;9344;52.294;13.626;2022-08-06T07:41:35;0.45;;;0.45;;
18433;SDS011;9344;52.294;13.626;2022-08-06T07:44:03;0.40;;;0.40;;
18433;SDS011;9344;52.294;13.626;2022-08-06T07:46:34;0.63;;;0.50;;
18433;SDS011;9344;52.294;13.626;2022-08-06T07:49:04;1.15;;;0.60;;
18433;SDS011;9344;52.294;13.626;2022-08-06T07:51:33;0.50;;;0.50;;
18433;SDS011;9344;52.294;13.626;2022-08-06T07:54:01;0.82;;;0.50;;
18433;SDS011;9344;52.294;13.626;2022-08-06T07:56:29;0.40;;;0.40;;
18433;SDS011;9344;52.294;13.626;2022-08-06T07:58:58;0.88;;;0.60;;
18433;SDS011;9344;52.294;13.626;2022-08-06T08:01:25;0.40;;;0.40;;
18433;SDS011;9344;52.294;13.626;2022-08-06T08:03:53;0.50;;;0.50;;
18433;SDS011;9344;52.294;13.626;2022-08-06T08:06:37;0.98;;;0.63;;
18433;SDS011;9344;52.294;13.626;2022-08-06T08:09:06;0.60;;;0.50;;
18433;SDS011;9344;52.294;13.626;2022-08-06T08:11:34;0.30;;;0.30;;
18433;SDS011;9344;52.294;13.626;2022-08-06T08:14:07;4.30;;;0.60;;
18433;SDS011;9344;52.294;13.626;2022-08-06T08:16:34;0.40;;;0.40;;
18433;SDS011;9344;52.294;13.626;2022-08-06T08:19:02;0.50;;;0.50;;
18433;SDS011;9344;52.294;13.626;2022-08-06T08:21:28;0.95;;;0.45;;
18433;SDS011;9344;52.294;13.626;2022-08-06T08:23:56;0.60;;;0.50;;
18433;SDS011;9344;52.294;13.626;2022-08-06T08:26:22;0.88;;;0.50;;
18433;SDS011;9344;52.294;13.626;2022-08-06T08:28:49;0.40;;;0.40;;
18433;SDS011;9344;52.294;13.626;2022-08-06T08:31:17;0.40;;;0.40;;
18433;SDS011;9344;52.294;13.626;2022-08-06T08:33:44;1.05;;;0.50;;
18433;SDS011;9344;52.294;13.626;2022-08-06T08:36:10;0.30;;;0.30;;
18433;SDS011;9344;52.294;13.626;2022-08-06T08:38:37;0.63;;;0.40;;
18433;SDS011;9344;52.294;13.626;2022-08-06T08:41:04;1.00;;;0.43;;
18433;SDS011;9344;52.294;13.626;2022-08-06T08:43:33;0.50;;;0.50;;
18433;SDS011;9344;52.294;13.626;2022-08-06T08:46:02;0.55;;;0.40;;
18433;SDS011;9344;52.294;13.626;2022-08-06T08:48:34;0.50;;;0.40;;
18433;SDS011;9344;52.294;13.626;2022-08-06T08:51:02;0.40;;;0.40;;
18433;SDS011;9344;52.294;13.626;2022-08-06T08:53:31;0.50;;;0.50;;
18433;SDS011;9344;52.294;13.626;2022-08-06T08:56:02;1.95;;;0.40;;
18433;SDS011;9344;52.294;13.626;2022-08-06T08:58:29;0.50;;;0.50;;
18433;SDS011;9344;52.294;13.626;2022-08-06T09:01:01;1.15;;;0.40;;
18433;SDS011;9344;52.294;13.626;2022-08-06T09:03:32;2.58;;;0.40;;
18433;SDS011;9344;52.294;13.626;2022-08-06T09:06:01;0.55;;;0.32;;
18433;SDS011;9344;52.294;13.626;2022-08-06T09:08:29;0.50;;;0.40;;
18433;SDS011;9344;52.294;13.626;2022-08-06T09:10:56;0.50;;;0.40;;
18433;SDS011;9344;52.294;13.626;2022-08-06T09:13:23;0.47;;;0.40;;
18433;SDS011;9344;52.294;13.626;2022-08-06T09:15:51;0.60;;;0.40;;
18433;SDS011;9344;52.294;13.626;2022-08-06T09:18:18;0.35;;;0.35;;
18433;SDS011;9344;52.294;13.626;2022-08-06T09:20:45;0.40;;;0.40;;
18433;SDS011;9344;52.294;13.626;2022-08-06T09:23:13;0.52;;;0.50;;
18433;SDS011;9344;52.294;13.626;2022-08-06T09:25:42;0.68;;;0.50;;
18433;SDS011;9344;52.294;13.626;2022-08-06T09:28:10;0.40;;;0.40;;
18433;SDS011;9344;52.294;13.626;2022-08-06T09:30:37;0.70;;;0.40;;
18433;SDS011;9344;52.294;13.626;2022-08-06T09:33:09;1.52;;;0.60;;
18433;SDS011;9344;52.294;13.626;2022-08-06T09:35:36;2.45;;;0.50;;
18433;SDS011;9344;52.294;13.626;2022-08-06T09:38:03;0.85;;;0.40;;
18433;SDS011;9344;52.294;13.626;2022-08-06T09:40:32;0.40;;;0.30;;
18433;SDS011;9344;52.294;13.626;2022-08-06T09:42:59;0.63;;;0.40;;
18433;SDS011;9344;52.294;13.626;2022-08-06T09:45:25;1.40;;;0.65;;
18433;SDS011;9344;52.294;13.626;2022-08-06T09:47:59;0.50;;;0.50;;
18433;SDS011;9344;52.294;13.626;2022-08-06T09:50:35;0.40;;;0.40;;
18433;SDS011;9344;52.294;13.626;2022-08-06T09:53:03;1.35;;;0.52;;
18433;SDS011;9344;52.294;13.626;2022-08-06T09:55:30;0.40;;;0.40;;
18433;SDS011;9344;52.294;13.626;2022-08-06T09:57:59;0.43;;;0.40;;
18433;SDS011;9344;52.294;13.626;2022-08-06T10:00:27;0.43;;;0.30;;
18433;SDS011;9344;52.294;13.626;2022-08-06T10:02:55;0.47;;;0.40;;
18433;SDS011;9344;52.294;13.626;2022-08-06T10:05:23;1.58;;;0.55;;
18433;SDS011;9344;52.294;13.626;2022-08-06T10:08:04;1.55;;;0.47;;
18433;SDS011;9344;52.294;13.626;2022-08-06T10:10:43;1.23;;;0.40;;
18433;SDS011;9344;52.294;13.626;2022-08-06T10:13:14;0.65;;;0.32;;
18433;SDS011;9344;52.294;13.626;2022-08-06T10:15:42;1.95;;;0.40;;
18433;SDS011;9344;52.294;13.626;2022-08-06T10:18:11;0.40;;;0.40;;
18433;SDS011;9344;52.294;13.626;2022-08-06T10:21:01;0.65;;;0.45;;
18433;SDS011;9344;52.294;13.626;2022-08-06T10:23:30;0.40;;;0.40;;
18433;SDS011;9344;52.294;13.626;2022-08-06T10:25:59;0.38;;;0.30;;
18433;SDS011;9344;52.294;13.626;2022-08-06T10:28:29;0.60;;;0.40;;
18433;SDS011;9344;52.294;13.626;2022-08-06T10:30:58;1.40;;;0.50;;
18433;SDS011;9344;52.294;13.626;2022-08-06T10:33:26;0.50;;;0.50;;
18433;SDS011;9344;52.294;13.626;2022-08-06T10:35:57;1.17;;;0.40;;
18433;SDS011;9344;52.294;13.626;2022-08-06T10:38:28;0.40;;;0.40;;
18433;SDS011;9344;52.294;13.626;2022-08-06T10:40:59;0.35;;;0.35;;
18433;SDS011;9344;52.294;13.626;2022-08-06T10:43:28;0.52;;;0.30;;
18433;SDS011;9344;52.294;13.626;2022-08-06T10:45:55;0.77;;;0.30;;
18433;SDS011;9344;52.294;13.626;2022-08-06T10:48:21;0.30;;;0.30;;
18433;SDS011;9344;52.294;13.626;2022-08-06T10:50:49;0.38;;;0.30;;
18433;SDS011;9344;52.294;13.626;2022-08-06T10:53:17;0.30;;;0.30;;
18433;SDS011;9344;52.294;13.626;2022-08-06T10:55:44;0.40;;;0.40;;
18433;SDS011;9344;52.294;13.626;2022-08-06T10:58:11;0.52;;;0.50;;
18433;SDS011;9344;52.294;13.626;2022-08-06T11:00:40;0.30;;;0.30;;
18433;SDS011;9344;52.294;13.626;2022-08-06T11:03:11;0.30;;;0.30;;
18433;SDS011;9344;52.294;13.626;2022-08-06T11:05:43;0.45;;;0.40;;
18433;SDS011;9344;52.294;13.626;2022-08-06T11:08:19;0.65;;;0.60;;
18433;SDS011;9344;52.294;13.626;2022-08-06T11:11:07;0.47;;;0.40;;
18433;SDS011;9344;52.294;13.626;2022-08-06T11:13:49;0.75;;;0.40;;
18433;SDS011;9344;52.294;13.626;2022-08-06T11:16:26;1.85;;;0.40;;
18433;SDS011;9344;52.294;13.626;2022-08-06T11:18:57;2.00;;;0.40;;
18433;SDS011;9344;52.294;13.626;2022-08-06T11:21:34;0.50;;;0.40;;
18433;SDS011;9344;52.294;13.626;2022-08-06T11:24:02;0.40;;;0.40;;
18433;SDS011;9344;52.294;13.626;2022-08-06T11:26:35;0.50;;;0.40;;
18433;SDS011;9344;52.294;13.626;2022-08-06T11:29:03;1.30;;;0.30;;
18433;SDS011;9344;52.294;13.626;2022-08-06T11:31:36;0.35;;;0.35;;
18433;SDS011;9344;52.294;13.626;2022-08-06T11:34:06;0.30;;;0.30;;
18433;SDS011;9344;52.294;13.626;2022-08-06T11:36:45;2.08;;;0.35;;
18433;SDS011;9344;52.294;13.626;2022-08-06T11:39:14;0.98;;;0.40;;
18433;SDS011;9344;52.294;13.626;2022-08-06T11:41:43;0.30;;;0.30;;
18433;SDS011;9344;52.294;13.626;2022-08-06T11:44:12;0.75;;;0.40;;
18433;SDS011;9344;52.294;13.626;2022-08-06T11:46:42;0.52;;;0.43;;
18433;SDS011;9344;52.294;13.626;2022-08-06T11:49:11;0.85;;;0.50;;
18433;SDS011;9344;52.294;13.626;2022-08-06T11:51:40;0.55;;;0.35;;
18433;SDS011;9344;52.294;13.626;2022-08-06T11:54:08;0.63;;;0.30;;
18433;SDS011;9344;52.294;13.626;2022-08-06T11:56:36;0.38;;;0.30;;
18433;SDS011;9344;52.294;13.626;2022-08-06T11:59:23;0.35;;;0.35;;
18433;SDS011;9344;52.294;13.626;2022-08-06T12:01:52;0.77;;;0.40;;
18433;SDS011;9344;52.294;13.626;2022-08-06T12:07:16;0.50;;;0.40;;
18433;SDS011;9344;52.294;13.626;2022-08-06T12:09:46;0.30;;;0.30;;
18433;SDS011;9344;52.294;13.626;2022-08-06T12:12:32;0.30;;;0.30;;
18433;SDS011;9344;52.294;13.626;2022-08-06T12:15:00;0.98;;;0.40;;
18433;SDS011;9344;52.294;13.626;2022-08-06T12:17:30;0.35;;;0.30;;
18433;SDS011;9344;52.294;13.626;2022-08-06T12:19:57;0.38;;;0.30;;
18433;SDS011;9344;52.294;13.626;2022-08-06T12:22:26;0.47;;;0.30;;
18433;SDS011;9344;52.294;13.626;2022-08-06T12:24:54;0.40;;;0.32;;
18433;SDS011;9344;52.294;13.626;2022-08-06T12:27:23;3.22;;;0.40;;
18433;SDS011;9344;52.294;13.626;2022-08-06T12:29:57;0.60;;;0.40;;
18433;SDS011;9344;52.294;13.626;2022-08-06T12:32:26;0.30;;;0.30;;
18433;SDS011;9344;52.294;13.626;2022-08-06T12:34:56;0.30;;;0.30;;
18433;SDS011;9344;52.294;13.626;2022-08-06T12:37:32;0.65;;;0.52;;
18433;SDS011;9344;52.294;13.626;2022-08-06T12:39:59;1.15;;;0.40;;
18433;SDS011;9344;52.294;13.626;2022-08-06T12:42:43;0.50;;;0.30;;
18433;SDS011;9344;52.294;13.626;2022-08-06T12:45:10;0.45;;;0.30;;
18433;SDS011;9344;52.294;13.626;2022-08-06T12:47:36;1.42;;;0.40;;
18433;SDS011;9344;52.294;13.626;2022-08-06T12:50:16;0.30;;;0.30;;
18433;SDS011;9344;52.294;13.626;2022-08-06T12:52:43;0.38;;;0.30;;
18433;SDS011;9344;52.294;13.626;2022-08-06T12:55:16;0.65;;;0.40;;
18433;SDS011;9344;52.294;13.626;2022-08-06T12:57:42;0.22;;;0.22;;
18433;SDS011;9344;52.294;13.626;2022-08-06T13:00:10;0.88;;;0.30;;
18433;SDS011;9344;52.294;13.626;2022-08-06T13:02:37;0.40;;;0.40;;
18433;SDS011;9344;52.294;13.626;2022-08-06T13:05:04;0.38;;;0.28;;
18433;SDS011;9344;52.294;13.626;2022-08-06T13:07:33;0.40;;;0.40;;
18433;SDS011;9344;52.294;13.626;2022-08-06T13:09:59;1.67;;;0.40;;
18433;SDS011;9344;52.294;13.626;2022-08-06T13:12:26;1.27;;;0.40;;
18433;SDS011;9344;52.294;13.626;2022-08-06T13:14:53;0.30;;;0.30;;
18433;SDS011;9344;52.294;13.626;2022-08-06T13:17:21;0.30;;;0.30;;
18433;SDS011;9344;52.294;13.626;2022-08-06T13:19:52;0.50;;;0.40;;
18433;SDS011;9344;52.294;13.626;2022-08-06T13:22:19;1.10;;;0.30;;
18433;SDS011;9344;52.294;13.626;2022-08-06T13:24:47;1.75;;;0.30;;
18433;SDS011;9344;52.294;13.626;2022-08-06T13:27:14;0.30;;;0.30;;
18433;SDS011;9344;52.294;13.626;2022-08-06T13:32:26;0.57;;;0.40;;
18433;SDS011;9344;52.294;13.626;2022-08-06T13:34:53;0.70;;;0.32;;
18433;SDS011;9344;52.294;13.626;2022-08-06T13:40:08;0.95;;;0.47;;
18433;SDS011;9344;52.294;13.626;2022-08-06T13:42:46;0.47;;;0.30;;
18433;SDS011;9344;52.294;13.626;2022-08-06T13:45:17;0.40;;;0.30;;
18433;SDS011;9344;52.294;13.626;2022-08-06T13:47:45;1.73;;;0.50;;
18433;SDS011;9344;52.294;13.626;2022-08-06T13:50:14;0.40;;;0.40;;
18433;SDS011;9344;52.294;13.626;2022-08-06T13:52:42;0.70;;;0.40;;
18433;SDS011;9344;52.294;13.626;2022-08-06T13:55:10;0.75;;;0.22;;
18433;SDS011;9344;52.294;13.626;2022-08-06T13:57:36;0.40;;;0.30;;
18433;SDS011;9344;52.294;13.626;2022-08-06T14:00:03;0.22;;;0.22;;
18433;SDS011;9344;52.294;13.626;2022-08-06T14:02:31;1.10;;;0.30;;
18433;SDS011;9344;52.294;13.626;2022-08-06T14:04:58;0.45;;;0.30;;
18433;SDS011;9344;52.294;13.626;2022-08-06T14:07:24;0.80;;;0.60;;
18433;SDS011;9344;52.294;13.626;2022-08-06T14:09:51;1.08;;;0.30;;
18433;SDS011;9344;52.294;13.626;2022-08-06T14:12:19;0.43;;;0.30;;
18433;SDS011;9344;52.294;13.626;2022-08-06T14:14:45;0.30;;;0.30;;
18433;SDS011;9344;52.294;13.626;2022-08-06T14:17:12;0.40;;;0.40;;
18433;SDS011;9344;52.294;13.626;2022-08-06T14:19:38;0.40;;;0.30;;
18433;SDS011;9344;52.294;13.626;2022-08-06T14:22:05;0.55;;;0.30;;
18433;SDS011;9344;52.294;13.626;2022-08-06T14:24:32;0.32;;;0.30;;
18433;SDS011;9344;52.294;13.626;2022-08-06T14:26:58;0.35;;;0.30;;
18433;SDS011;9344;52.294;13.626;2022-08-06T14:29:26;0.30;;;0.30;;
18433;SDS011;9344;52.294;13.626;2022-08-06T14:31:53;1.17;;;0.38;;
18433;SDS011;9344;52.294;13.626;2022-08-06T14:34:19;0.47;;;0.30;;
18433;SDS011;9344;52.294;13.626;2022-08-06T14:36:46;0.40;;;0.30;;
18433;SDS011;9344;52.294;13.626;2022-08-06T14:39:12;0.47;;;0.40;;
18433;SDS011;9344;52.294;13.626;2022-08-06T14:41:40;0.75;;;0.40;;
18433;SDS011;9344;52.294;13.626;2022-08-06T14:44:25;0.30;;;0.30;;
18433;SDS011;9344;52.294;13.626;2022-08-06T14:47:10;0.30;;;0.30;;
18433;SDS011;9344;52.294;13.626;2022-08-06T14:49:36;0.30;;;0.30;;
18433;SDS011;9344;52.294;13.626;2022-08-06T14:52:03;0.30;;;0.30;;
18433;SDS011;9344;52.294;13.626;2022-08-06T14:54:30;0.40;;;0.30;;
18433;SDS011;9344;52.294;13.626;2022-08-06T14:56:57;0.32;;;0.32;;
18433;SDS011;9344;52.294;13.626;2022-08-06T14:59:24;0.60;;;0.40;;
18433;SDS011;9344;52.294;13.626;2022-08-06T15:01:52;0.30;;;0.30;;
18433;SDS011;9344;52.294;13.626;2022-08-06T15:04:19;0.40;;;0.30;;
18433;SDS011;9344;52.294;13.626;2022-08-06T15:06:46;0.22;;;0.22;;
18433;SDS011;9344;52.294;13.626;2022-08-06T15:09:12;1.45;;;0.40;;
18433;SDS011;9344;52.294;13.626;2022-08-06T15:11:39;1.30;;;0.30;;